Terminal Aerodrome Forecast
Issued by NWS Portland, OR

Home | Current Version | Previous Version | Text Only | Print | Product List | Glossary On
Versions: 1 2 3 4 5 6 7 8 9 10 11 12 13 14 15 16 17 18 19 20
000
FTUS46 KPQR 231922 AAA
TAFAST
TAF AMD
KAST 231922Z 2319/2418 20012G20KT 6SM -SHRA BR BKN015 OVC040
     FM240300 21006KT P6SM -RA SCT015 OVC030
     FM240600 18005KT 4SM -RA BR SCT007 OVC015
     FM241100 11005KT 6SM -RA BKN015 OVC030=

USA.gov is the U.S. government's official web portal to all federal, state and local government web resources and services.